Time;durP1;ratioP1;P1;durP2;ratioP2;P2;SDS_P1;SDS_P2;PMS_P1;PMS_P2;Temp;Humidity;BMP_temperature;BMP_pressure;BME280_temperature;BME280_humidity;BME280_pressure;Samples;Min_cycle;Max_cycle;Signal;HPM_P1;HPM_P2
2024/01/14 00:01:56;;;;;;;65.32;25.10;;;4.30;99.90;;;;;;5090425;28;20058;-77
2024/01/14 00:04:22;;;;;;;71.43;24.13;;;4.30;99.90;;;;;;5092091;28;20035;-77
2024/01/14 00:06:49;;;;;;;80.20;28.13;;;4.30;99.90;;;;;;5091692;28;20569;-77
2024/01/14 00:09:16;;;;;;;73.38;26.15;;;4.20;99.90;;;;;;5092185;28;20106;-77
2024/01/14 00:11:42;;;;;;;88.40;27.73;;;4.20;99.90;;;;;;5091367;28;20035;-77
2024/01/14 00:14:11;;;;;;;77.50;28.88;;;4.20;99.90;;;;;;5074193;28;20032;-77
2024/01/14 00:16:36;;;;;;;77.22;27.75;;;4.20;99.90;;;;;;5091788;28;20134;-77
2024/01/14 00:19:03;;;;;;;73.72;28.00;;;4.20;99.90;;;;;;5091597;28;20036;-78
2024/01/14 00:21:29;;;;;;;84.05;29.30;;;4.10;99.90;;;;;;5073490;28;20028;-78
2024/01/14 00:23:55;;;;;;;75.85;27.35;;;4.10;99.90;;;;;;5090884;28;20023;-77
2024/01/14 00:26:24;;;;;;;74.47;28.05;;;4.10;99.90;;;;;;5073533;28;20040;-77
2024/01/14 00:28:50;;;;;;;70.00;26.63;;;4.10;99.90;;;;;;5090987;28;20016;-77
2024/01/14 00:31:16;;;;;;;84.05;29.58;;;4.10;99.90;;;;;;5091596;28;20051;-77
2024/01/14 00:33:42;;;;;;;77.68;29.17;;;4.00;99.90;;;;;;5091139;28;20072;-78
2024/01/14 00:36:08;;;;;;;86.68;28.15;;;4.00;99.90;;;;;;5091349;28;20059;-78
2024/01/14 00:38:34;;;;;;;83.15;27.98;;;4.00;99.90;;;;;;5091080;28;20016;-77
2024/01/14 00:41:00;;;;;;;82.40;28.50;;;4.00;99.90;;;;;;5073021;28;20052;-78
2024/01/14 00:43:29;;;;;;;89.00;29.40;;;4.00;99.90;;;;;;5091332;28;20135;-79
2024/01/14 00:45:54;;;;;;;81.68;28.30;;;4.00;99.90;;;;;;5072841;28;20016;-78
2024/01/14 00:48:20;;;;;;;97.15;29.90;;;4.00;99.90;;;;;;5090300;28;20024;-78
2024/01/14 00:50:49;;;;;;;89.07;28.15;;;4.00;99.90;;;;;;5091223;28;20111;-78
2024/01/14 00:53:14;;;;;;;71.70;25.75;;;4.00;99.90;;;;;;5072035;28;20047;-78
2024/01/14 00:55:43;;;;;;;86.43;27.77;;;4.00;99.90;;;;;;5073331;28;20024;-79
2024/01/14 00:58:09;;;;;;;79.65;27.30;;;4.00;99.90;;;;;;5090659;28;20055;-79
2024/01/14 01:00:40;;;;;;;76.90;28.23;;;4.00;99.90;;;;;;5091164;28;20077;-79
2024/01/14 01:03:09;;;;;;;80.25;26.70;;;4.00;99.90;;;;;;5090034;28;20020;-79
2024/01/14 01:05:34;;;;;;;89.57;27.30;;;4.00;99.90;;;;;;5091254;28;20080;-78
2024/01/14 01:08:01;;;;;;;92.53;29.60;;;4.00;99.90;;;;;;5090036;28;20060;-78
2024/01/14 01:10:27;;;;;;;108.57;33.65;;;4.00;99.90;;;;;;5091238;28;20028;-78
2024/01/14 01:12:53;;;;;;;116.75;33.53;;;4.00;99.90;;;;;;5090163;28;20076;-78
2024/01/14 01:15:18;;;;;;;132.38;34.15;;;4.00;99.90;;;;;;5091002;28;20020;-79
2024/01/14 01:17:44;;;;;;;128.13;35.38;;;4.00;99.90;;;;;;5090534;28;20067;-79
2024/01/14 01:20:10;;;;;;;137.18;37.08;;;4.00;99.90;;;;;;5091099;28;20315;-79
2024/01/14 01:22:36;;;;;;;130.90;36.47;;;4.00;99.90;;;;;;5071620;28;20028;-79
2024/01/14 01:25:02;;;;;;;115.65;32.70;;;4.00;99.90;;;;;;5090436;28;20146;-78
2024/01/14 01:27:31;;;;;;;127.35;34.53;;;3.90;99.90;;;;;;5090079;28;20036;-78
2024/01/14 01:29:56;;;;;;;120.32;35.22;;;3.90;99.90;;;;;;5090178;28;20038;-78
2024/01/14 01:32:22;;;;;;;138.50;35.15;;;3.90;99.90;;;;;;5090049;28;20032;-78
2024/01/14 01:34:51;;;;;;;150.40;34.03;;;3.90;99.90;;;;;;5072213;28;20074;-78
2024/01/14 01:37:16;;;;;;;125.97;36.40;;;3.90;99.90;;;;;;5071743;28;20050;-78
2024/01/14 01:39:42;;;;;;;127.20;34.78;;;3.90;99.90;;;;;;5090643;28;20434;-78
2024/01/14 01:42:08;;;;;;;138.40;38.30;;;3.90;99.90;;;;;;5090063;28;20051;-78
2024/01/14 01:44:34;;;;;;;142.27;38.53;;;3.90;99.90;;;;;;5090640;28;20013;-78
2024/01/14 01:47:00;;;;;;;135.43;38.72;;;3.90;99.90;;;;;;5089935;28;20042;-78
2024/01/14 01:49:30;;;;;;;141.95;37.55;;;3.80;99.90;;;;;;5090340;28;20023;-78
2024/01/14 01:51:57;;;;;;;138.18;34.72;;;3.80;99.90;;;;;;5089948;28;20503;-77
2024/01/14 01:54:28;;;;;;;150.32;36.10;;;3.80;99.90;;;;;;5089976;28;20054;-76
2024/01/14 01:56:57;;;;;;;106.05;32.22;;;3.80;99.90;;;;;;5076164;28;20094;-78
2024/01/14 01:59:23;;;;;;;145.13;35.67;;;3.80;99.90;;;;;;5094947;28;20035;-78
2024/01/14 02:01:54;;;;;;;139.68;34.15;;;3.90;99.90;;;;;;5096680;28;20399;-78
2024/01/14 02:04:21;;;;;;;156.00;36.38;;;3.90;99.90;;;;;;5078902;28;20020;-78
2024/01/14 02:06:47;;;;;;;113.43;30.05;;;3.80;99.90;;;;;;5096988;28;20020;-77
2024/01/14 02:09:13;;;;;;;144.70;33.58;;;3.90;99.90;;;;;;5078270;28;20328;-78
2024/01/14 02:11:38;;;;;;;138.77;34.53;;;3.90;99.90;;;;;;5078915;28;20024;-78
2024/01/14 02:14:07;;;;;;;132.77;35.30;;;4.00;99.90;;;;;;5095899;28;20015;-78
2024/01/14 02:16:33;;;;;;;161.63;36.85;;;4.00;99.90;;;;;;5096821;28;20083;-78
2024/01/14 02:18:58;;;;;;;136.93;36.35;;;3.90;99.90;;;;;;5095932;28;20740;-78
2024/01/14 02:21:44;;;;;;;142.55;37.08;;;3.90;99.90;;;;;;5096999;28;20098;-78
2024/01/14 02:24:29;;;;;;;133.90;35.78;;;3.90;99.90;;;;;;5096249;28;20031;-78
2024/01/14 02:26:55;;;;;;;138.38;37.90;;;3.90;99.90;;;;;;5096911;28;20020;-78
2024/01/14 02:29:21;;;;;;;148.02;38.72;;;3.90;99.90;;;;;;5096364;28;20483;-78
2024/01/14 02:31:50;;;;;;;142.77;39.42;;;3.90;99.90;;;;;;5096761;28;20043;-78
2024/01/14 02:34:15;;;;;;;152.05;38.30;;;3.80;99.90;;;;;;5096210;28;20496;-78
2024/01/14 02:36:41;;;;;;;128.75;36.88;;;3.80;99.90;;;;;;5096679;28;20028;-78
2024/01/14 02:39:10;;;;;;;153.48;39.72;;;3.80;99.90;;;;;;5095572;28;20060;-78
2024/01/14 02:41:36;;;;;;;115.38;35.85;;;3.80;99.90;;;;;;5097094;28;20022;-78
2024/01/14 02:44:02;;;;;;;116.53;34.40;;;3.80;99.90;;;;;;5096058;28;20024;-79
2024/01/14 02:46:29;;;;;;;122.15;35.33;;;3.80;99.90;;;;;;5096562;28;20016;-78
2024/01/14 02:48:55;;;;;;;125.75;36.20;;;3.80;99.90;;;;;;5077615;28;20040;-78
2024/01/14 02:51:22;;;;;;;124.70;37.17;;;3.80;99.90;;;;;;5097012;28;20023;-78
2024/01/14 02:53:48;;;;;;;117.60;35.30;;;3.80;99.90;;;;;;5095409;28;20056;-78
2024/01/14 02:56:13;;;;;;;122.03;34.63;;;3.90;99.90;;;;;;5096302;28;20035;-78
2024/01/14 02:58:42;;;;;;;136.55;38.00;;;3.90;99.90;;;;;;5095771;28;20393;-78
2024/01/14 03:01:07;;;;;;;119.10;37.17;;;3.90;99.90;;;;;;5096347;28;20024;-79
2024/01/14 03:03:33;;;;;;;131.43;36.33;;;3.90;99.90;;;;;;5096138;28;20526;-78
2024/01/14 03:05:59;;;;;;;118.75;39.40;;;3.80;99.90;;;;;;5078118;28;20550;-78
2024/01/14 03:08:25;;;;;;;130.23;38.80;;;3.80;99.90;;;;;;5096221;28;20024;-78
2024/01/14 03:10:50;;;;;;;123.60;37.75;;;3.80;99.90;;;;;;5094000;28;20024;-79
2024/01/14 03:13:16;;;;;;;111.63;35.13;;;3.80;99.90;;;;;;5093221;28;20035;-79
2024/01/14 03:15:45;;;;;;;97.50;29.67;;;3.80;99.90;;;;;;5093545;28;20059;-78
2024/01/14 03:18:17;;;;;;;119.80;37.10;;;3.80;99.90;;;;;;5092553;28;20028;-79
2024/01/14 03:20:42;;;;;;;118.35;35.42;;;3.80;99.90;;;;;;5092961;28;20016;-81
2024/01/14 03:23:08;;;;;;;127.43;37.80;;;3.90;99.90;;;;;;5092446;28;20024;-78
2024/01/14 03:25:37;;;;;;;133.02;39.63;;;3.90;99.90;;;;;;5092879;28;20032;-78
2024/01/14 03:28:02;;;;;;;131.98;39.50;;;3.80;99.90;;;;;;5091985;28;20504;-78
2024/01/14 03:30:31;;;;;;;143.88;40.63;;;3.90;99.90;;;;;;5093036;28;20085;-79
2024/01/14 03:32:57;;;;;;;101.18;32.28;;;3.80;99.90;;;;;;5073554;28;20474;-79
2024/01/14 03:35:22;;;;;;;133.88;37.45;;;3.80;99.90;;;;;;5093275;28;20043;-79
2024/01/14 03:37:51;;;;;;;135.32;38.03;;;3.80;99.90;;;;;;5092479;28;20111;-78
2024/01/14 03:40:18;;;;;;;140.45;40.80;;;3.80;99.90;;;;;;5074562;28;20063;-78
2024/01/14 03:42:46;;;;;;;134.00;41.72;;;3.80;99.90;;;;;;5092153;28;20028;-78
2024/01/14 03:45:12;;;;;;;145.13;41.30;;;3.80;99.90;;;;;;5092965;28;20024;-78
2024/01/14 03:47:37;;;;;;;141.20;42.67;;;3.80;99.90;;;;;;5091943;28;20118;-78
2024/01/14 03:50:04;;;;;;;140.27;43.03;;;3.80;99.90;;;;;;5092415;28;20020;-78
2024/01/14 03:52:29;;;;;;;140.40;38.85;;;3.70;99.90;;;;;;5091580;28;20055;-78
2024/01/14 03:54:55;;;;;;;135.50;41.42;;;3.70;99.90;;;;;;5073878;28;20020;-78
2024/01/14 03:57:21;;;;;;;135.50;41.72;;;3.70;99.90;;;;;;5092157;28;20024;-78
2024/01/14 03:59:50;;;;;;;140.35;40.20;;;3.70;99.90;;;;;;5073946;28;20362;-78
2024/01/14 04:02:15;;;;;;;121.72;37.13;;;3.70;99.90;;;;;;5092299;28;20031;-78
2024/01/14 04:04:44;;;;;;;136.10;39.35;;;3.70;99.90;;;;;;5091920;28;20481;-79
2024/01/14 04:07:09;;;;;;;138.40;40.25;;;3.60;99.90;;;;;;5074167;28;20020;-79
2024/01/14 04:09:35;;;;;;;139.55;40.83;;;3.60;99.90;;;;;;5091851;28;20076;-82
2024/01/14 04:12:04;;;;;;;132.13;42.40;;;3.60;99.90;;;;;;5091989;28;20020;-79
2024/01/14 04:14:30;;;;;;;123.82;38.22;;;3.50;99.90;;;;;;5091959;28;20035;-79
2024/01/14 04:16:55;;;;;;;117.57;37.05;;;3.50;99.90;;;;;;5091809;28;20486;-79
2024/01/14 04:19:21;;;;;;;137.55;40.47;;;3.50;99.90;;;;;;5091398;28;20549;-79
2024/01/14 04:21:47;;;;;;;120.35;39.92;;;3.50;99.90;;;;;;5090258;28;20480;-79
2024/01/14 04:24:12;;;;;;;134.25;41.88;;;3.50;99.90;;;;;;5073016;28;20030;-80
2024/01/14 04:26:38;;;;;;;133.20;39.38;;;3.50;99.90;;;;;;5091865;28;20485;-80
2024/01/14 04:29:07;;;;;;;151.95;39.92;;;3.40;99.90;;;;;;5072593;28;20566;-80
2024/01/14 04:31:32;;;;;;;138.48;40.13;;;3.50;99.90;;;;;;5092020;28;20039;-79
2024/01/14 04:34:03;;;;;;;140.50;40.53;;;3.50;99.90;;;;;;5090450;28;20032;-79
2024/01/14 04:36:29;;;;;;;131.00;37.53;;;3.50;99.90;;;;;;5078019;28;20113;-79
2024/01/14 04:38:57;;;;;;;144.35;41.20;;;3.50;99.90;;;;;;5091008;28;20473;-78
2024/01/14 04:41:23;;;;;;;139.48;39.17;;;3.50;99.90;;;;;;5091573;28;20073;-80
2024/01/14 04:43:48;;;;;;;128.02;37.42;;;3.50;99.90;;;;;;5072814;28;20525;-78
2024/01/14 04:46:14;;;;;;;133.13;37.67;;;3.50;99.90;;;;;;5091841;28;20024;-76
2024/01/14 04:48:40;;;;;;;123.95;39.22;;;3.50;99.90;;;;;;5090977;28;20024;-78
2024/01/14 04:51:06;;;;;;;125.45;41.28;;;3.50;99.90;;;;;;5072793;28;20028;-80
2024/01/14 04:53:31;;;;;;;149.60;40.92;;;3.50;99.90;;;;;;5090671;28;20122;-80
2024/01/14 04:56:00;;;;;;;134.70;39.20;;;3.50;99.90;;;;;;5073212;28;20028;-80
2024/01/14 04:58:25;;;;;;;138.95;40.95;;;3.50;99.90;;;;;;5090405;28;20020;-80
2024/01/14 05:00:51;;;;;;;140.75;39.58;;;3.40;99.90;;;;;;5090778;28;20031;-80
2024/01/14 05:03:21;;;;;;;133.65;40.10;;;3.40;99.90;;;;;;5072118;28;20024;-80
2024/01/14 05:05:50;;;;;;;116.13;38.35;;;3.40;99.90;;;;;;5090651;28;20038;-80
2024/01/14 05:08:15;;;;;;;133.55;40.25;;;3.40;99.90;;;;;;5090426;28;20028;-80
2024/01/14 05:10:41;;;;;;;135.55;41.58;;;3.40;99.90;;;;;;5091084;28;20036;-80
2024/01/14 05:13:09;;;;;;;138.30;40.20;;;3.40;99.90;;;;;;5089866;28;20028;-80
2024/01/14 05:15:35;;;;;;;133.32;39.50;;;3.30;99.90;;;;;;5090858;28;20062;-80
2024/01/14 05:18:01;;;;;;;132.25;39.63;;;3.40;99.90;;;;;;5090282;28;20020;-80
2024/01/14 05:20:29;;;;;;;142.70;40.20;;;3.30;99.90;;;;;;5090739;28;20020;-80
2024/01/14 05:22:55;;;;;;;134.30;40.08;;;3.30;99.90;;;;;;5089867;28;20012;-80
2024/01/14 05:25:24;;;;;;;117.82;38.20;;;3.40;99.90;;;;;;5090643;28;20469;-80
2024/01/14 05:27:49;;;;;;;127.22;39.53;;;3.40;99.90;;;;;;5090183;28;20031;-79
2024/01/14 05:30:15;;;;;;;126.97;38.85;;;3.30;99.90;;;;;;5089252;28;20020;-81
2024/01/14 05:32:43;;;;;;;132.57;40.03;;;3.40;99.90;;;;;;5089969;28;20529;-80
2024/01/14 05:35:09;;;;;;;105.53;31.45;;;3.30;99.90;;;;;;5090427;28;20489;-80
2024/01/14 05:37:35;;;;;;;123.18;34.80;;;3.30;99.90;;;;;;5090734;28;20541;-77
2024/01/14 05:40:05;;;;;;;118.18;37.63;;;3.30;99.90;;;;;;5071904;28;20301;-78
2024/01/14 05:42:30;;;;;;;108.88;35.97;;;3.30;99.90;;;;;;5090324;28;20056;-78
2024/01/14 05:44:59;;;;;;;112.97;36.33;;;3.30;99.90;;;;;;5089955;28;20059;-77
2024/01/14 05:47:24;;;;;;;96.93;34.40;;;3.30;99.90;;;;;;5090842;28;20016;-78
2024/01/14 05:49:50;;;;;;;106.68;34.38;;;3.30;99.90;;;;;;5090081;28;20031;-77
2024/01/14 05:52:16;;;;;;;105.82;35.05;;;3.30;99.90;;;;;;5090669;28;20024;-77
2024/01/14 05:54:44;;;;;;;107.70;35.83;;;3.30;99.90;;;;;;5090132;28;20392;-80
2024/01/14 05:57:13;;;;;;;109.75;34.15;;;3.30;99.90;;;;;;5072012;28;20031;-80
2024/01/14 05:59:40;;;;;;;98.15;33.90;;;3.30;99.90;;;;;;5089765;28;20043;-80
2024/01/14 06:02:09;;;;;;;92.35;33.13;;;3.30;99.90;;;;;;5071736;28;20314;-80
2024/01/14 06:04:34;;;;;;;91.60;32.78;;;3.20;99.90;;;;;;5089737;28;20491;-80
2024/01/14 06:07:00;;;;;;;89.80;32.22;;;3.20;99.90;;;;;;5089773;28;20032;-80
2024/01/14 06:09:29;;;;;;;92.22;32.53;;;3.20;99.90;;;;;;5089709;28;20546;-80
2024/01/14 06:11:55;;;;;;;96.85;33.10;;;3.20;99.90;;;;;;5089716;28;20455;-79
2024/01/14 06:14:20;;;;;;;95.47;32.00;;;3.10;99.90;;;;;;5089710;28;20085;-80
2024/01/14 06:16:46;;;;;;;94.50;32.00;;;3.10;99.90;;;;;;5090298;28;20024;-79
2024/01/14 06:19:12;;;;;;;75.15;28.92;;;3.10;99.90;;;;;;5089873;28;20039;-80
2024/01/14 06:21:46;;;;;;;93.88;31.58;;;3.10;99.90;;;;;;5090096;28;20078;-80
2024/01/14 06:24:15;;;;;;;88.57;32.10;;;3.10;99.90;;;;;;5089554;28;20085;-80
2024/01/14 06:26:41;;;;;;;97.72;30.98;;;3.10;99.90;;;;;;5090106;28;20470;-79
2024/01/14 06:29:07;;;;;;;91.22;32.15;;;3.10;99.90;;;;;;5089199;28;20024;-80
2024/01/14 06:31:36;;;;;;;99.65;32.63;;;3.10;99.90;;;;;;5090214;28;20269;-80
2024/01/14 06:34:01;;;;;;;91.28;32.65;;;3.10;99.90;;;;;;5089149;28;20477;-80
2024/01/14 06:36:30;;;;;;;96.68;31.95;;;3.10;99.90;;;;;;5071988;28;20032;-79
2024/01/14 06:38:56;;;;;;;92.32;33.50;;;3.10;99.90;;;;;;5089148;28;20107;-80
2024/01/14 06:41:25;;;;;;;101.80;31.98;;;3.10;99.90;;;;;;5089982;28;20429;-80
2024/01/14 06:43:51;;;;;;;88.03;32.58;;;3.10;99.90;;;;;;5089078;28;20039;-80
2024/01/14 06:46:16;;;;;;;114.60;36.13;;;3.10;99.90;;;;;;5092392;28;20016;-80
2024/01/14 06:48:42;;;;;;;98.82;35.20;;;3.10;99.90;;;;;;5093548;28;20066;-79
2024/01/14 06:51:08;;;;;;;113.65;36.85;;;3.10;99.90;;;;;;5093644;28;20023;-79
2024/01/14 06:53:34;;;;;;;109.95;38.42;;;3.10;99.90;;;;;;5092731;28;20044;-79
2024/01/14 06:56:03;;;;;;;114.57;39.40;;;3.10;99.90;;;;;;5093323;28;20023;-77
2024/01/14 06:58:29;;;;;;;116.82;40.78;;;3.00;99.90;;;;;;5092828;28;20036;-77
2024/01/14 07:00:55;;;;;;;105.43;38.10;;;3.00;99.90;;;;;;5086242;22;20111;-77
2024/01/14 07:03:21;;;;;;;117.82;40.25;;;3.00;99.90;;;;;;5087694;28;20095;-79
2024/01/14 07:05:46;;;;;;;111.18;38.53;;;3.00;99.90;;;;;;5078794;28;20017;-78
2024/01/14 07:08:12;;;;;;;97.97;37.25;;;3.00;99.90;;;;;;5075274;28;20032;-78
2024/01/14 07:10:37;;;;;;;108.68;38.05;;;3.00;99.90;;;;;;5071259;28;20494;-78
2024/01/14 07:13:03;;;;;;;94.43;34.90;;;3.00;99.90;;;;;;5069520;28;20090;-77
2024/01/14 07:15:29;;;;;;;113.18;38.97;;;3.00;99.90;;;;;;5085433;28;20051;-78
2024/01/14 07:17:54;;;;;;;123.68;41.60;;;3.00;99.90;;;;;;5089288;28;20312;-78
2024/01/14 07:20:21;;;;;;;113.13;41.35;;;3.00;99.90;;;;;;5083345;28;20024;-77
2024/01/14 07:22:46;;;;;;;121.28;40.47;;;3.00;99.90;;;;;;5079078;28;20386;-78
2024/01/14 07:25:12;;;;;;;111.90;37.88;;;2.90;99.90;;;;;;5083534;28;20017;-78
2024/01/14 07:27:38;;;;;;;111.85;40.25;;;3.00;99.90;;;;;;5073381;28;20021;-78
2024/01/14 07:30:05;;;;;;;120.15;43.45;;;3.00;99.90;;;;;;5084189;28;20371;-78
2024/01/14 07:32:31;;;;;;;133.60;44.90;;;3.00;99.90;;;;;;5080705;28;20024;-78
2024/01/14 07:34:58;;;;;;;128.73;43.20;;;2.90;99.90;;;;;;5088926;28;20373;-77
2024/01/14 07:37:23;;;;;;;127.05;42.95;;;2.90;99.90;;;;;;5072861;28;20020;-78
2024/01/14 07:39:49;;;;;;;131.32;44.55;;;2.90;99.90;;;;;;5086457;28;20027;-78
2024/01/14 07:42:16;;;;;;;125.82;38.95;;;2.90;99.90;;;;;;5079169;28;20384;-78
2024/01/14 07:44:41;;;;;;;133.68;42.35;;;3.00;99.90;;;;;;5078617;28;20435;-78
2024/01/14 07:47:07;;;;;;;120.50;41.30;;;2.90;99.90;;;;;;5071284;28;20599;-78
2024/01/14 07:49:33;;;;;;;131.25;44.80;;;2.90;99.90;;;;;;5064493;28;20052;-78
2024/01/14 07:51:59;;;;;;;130.57;43.05;;;2.90;99.90;;;;;;5086808;28;20555;-77
2024/01/14 07:54:25;;;;;;;136.10;44.50;;;2.90;99.90;;;;;;5081838;28;20031;-78
2024/01/14 07:56:52;;;;;;;124.60;41.53;;;2.90;99.90;;;;;;5078137;28;20024;-78
2024/01/14 07:59:20;;;;;;;118.28;40.00;;;2.80;99.90;;;;;;5077314;28;20065;-78
2024/01/14 08:01:46;;;;;;;129.85;42.60;;;2.90;99.90;;;;;;5047165;28;20017;-78
2024/01/14 08:04:12;;;;;;;132.63;43.83;;;2.90;99.90;;;;;;5071862;28;20017;-78
2024/01/14 08:06:37;;;;;;;124.50;40.22;;;2.90;99.90;;;;;;5059997;28;20029;-78
2024/01/14 08:09:03;;;;;;;128.98;41.95;;;2.90;99.90;;;;;;5069999;28;20044;-78
2024/01/14 08:11:29;;;;;;;122.15;43.42;;;2.90;99.90;;;;;;5061761;28;20528;-78
2024/01/14 08:13:54;;;;;;;124.47;42.72;;;2.90;99.90;;;;;;5065447;28;20028;-77
2024/01/14 08:16:20;;;;;;;118.85;41.10;;;2.90;99.90;;;;;;5072240;28;20119;-77
2024/01/14 08:18:46;;;;;;;134.57;41.40;;;2.90;99.90;;;;;;5071657;28;20031;-78
2024/01/14 08:21:11;;;;;;;97.45;35.63;;;2.90;99.90;;;;;;5066928;28;20398;-77
2024/01/14 08:23:37;;;;;;;110.97;39.35;;;3.00;99.90;;;;;;5062554;28;20016;-78
2024/01/14 08:26:04;;;;;;;119.22;41.05;;;3.00;99.90;;;;;;5069015;28;20032;-78
2024/01/14 08:28:31;;;;;;;110.45;39.22;;;2.90;99.90;;;;;;5060658;28;20041;-77
2024/01/14 08:30:57;;;;;;;117.63;39.72;;;2.90;99.90;;;;;;5042705;28;20037;-77
2024/01/14 08:33:23;;;;;;;115.13;37.53;;;3.00;99.90;;;;;;5048584;28;20054;-77
2024/01/14 08:35:49;;;;;;;125.10;39.40;;;3.00;99.90;;;;;;5071797;28;20041;-78
2024/01/14 08:38:14;;;;;;;118.40;41.55;;;3.00;99.90;;;;;;5066293;28;20424;-78
2024/01/14 08:40:40;;;;;;;113.18;41.55;;;3.00;99.90;;;;;;5063261;28;20045;-78
2024/01/14 08:43:06;;;;;;;136.00;41.13;;;3.00;99.90;;;;;;5071765;28;20024;-78
2024/01/14 08:45:32;;;;;;;111.65;39.88;;;3.00;99.90;;;;;;5068843;28;20067;-78
2024/01/14 08:47:57;;;;;;;114.95;38.65;;;3.00;99.90;;;;;;5071485;28;20021;-77
2024/01/14 08:50:23;;;;;;;117.75;40.13;;;3.00;99.90;;;;;;5063483;28;20029;-77
2024/01/14 08:52:49;;;;;;;110.60;39.03;;;3.00;99.90;;;;;;5064968;28;20080;-78
2024/01/14 08:55:14;;;;;;;113.32;38.75;;;3.00;99.90;;;;;;5070745;28;20025;-78
2024/01/14 08:57:40;;;;;;;97.45;36.70;;;3.00;99.90;;;;;;5060040;28;20025;-78
2024/01/14 09:00:07;;;;;;;111.97;38.38;;;3.00;99.90;;;;;;5047324;28;20525;-78
2024/01/14 09:02:32;;;;;;;113.35;41.42;;;3.00;99.90;;;;;;5063850;28;20121;-78
2024/01/14 09:04:58;;;;;;;117.75;40.60;;;3.00;99.90;;;;;;5045203;28;20069;-78
2024/01/14 09:07:25;;;;;;;102.47;37.63;;;3.00;99.90;;;;;;5060515;28;20052;-78
2024/01/14 09:09:50;;;;;;;103.50;39.22;;;3.00;99.90;;;;;;5037894;28;20091;-78
2024/01/14 09:12:16;;;;;;;113.80;38.33;;;2.90;99.90;;;;;;5040078;28;20060;-78
2024/01/14 09:14:42;;;;;;;116.00;39.33;;;3.00;99.90;;;;;;5045803;28;20085;-78
2024/01/14 09:17:08;;;;;;;109.18;39.03;;;3.00;99.90;;;;;;5055777;28;20179;-78
2024/01/14 09:19:34;;;;;;;109.50;36.78;;;3.00;99.90;;;;;;5047316;28;20021;-78
2024/01/14 09:22:00;;;;;;;100.38;37.53;;;3.00;99.90;;;;;;5040234;28;20047;-78
2024/01/14 09:24:25;;;;;;;105.30;36.70;;;3.00;99.90;;;;;;5039745;28;20032;-78
2024/01/14 09:26:51;;;;;;;93.93;34.80;;;3.00;99.90;;;;;;5031580;28;20028;-78
2024/01/14 09:29:17;;;;;;;111.93;37.38;;;3.00;99.90;;;;;;5033368;28;20040;-78
2024/01/14 09:31:42;;;;;;;99.32;35.67;;;3.00;99.90;;;;;;5067334;28;20290;-78
2024/01/14 09:34:08;;;;;;;88.30;33.05;;;3.00;99.90;;;;;;5046857;28;20028;-78
2024/01/14 09:36:33;;;;;;;87.88;34.85;;;3.00;99.90;;;;;;5061831;28;20078;-78
2024/01/14 09:38:59;;;;;;;87.03;33.38;;;3.00;99.90;;;;;;5033709;28;20033;-78
2024/01/14 09:42:00;;;;;;;88.82;33.63;;;3.10;99.90;;;;;;5040214;28;20016;-78
2024/01/14 09:44:26;;;;;;;93.70;34.63;;;3.10;99.90;;;;;;5057467;28;20550;-78
2024/01/14 09:46:52;;;;;;;93.75;35.65;;;3.10;99.90;;;;;;5048735;28;20113;-78
2024/01/14 09:49:21;;;;;;;92.50;36.03;;;3.00;99.90;;;;;;5036871;28;20402;-78
2024/01/14 09:51:49;;;;;;;95.55;33.97;;;3.00;99.90;;;;;;5061564;28;20024;-78
2024/01/14 09:54:15;;;;;;;93.68;35.95;;;3.10;99.90;;;;;;5049796;28;20036;-78
2024/01/14 09:56:41;;;;;;;90.80;36.33;;;3.10;99.90;;;;;;5049370;28;20032;-78
2024/01/14 09:59:08;;;;;;;97.50;36.88;;;3.10;99.90;;;;;;5045506;28;20021;-78
2024/01/14 10:01:34;;;;;;;97.82;35.63;;;3.10;99.90;;;;;;5042737;28;20538;-78
2024/01/14 10:04:02;;;;;;;99.50;37.97;;;3.10;99.90;;;;;;5032180;28;20060;-79
2024/01/14 10:06:28;;;;;;;92.00;36.22;;;3.10;99.90;;;;;;5042577;28;20583;-79
2024/01/14 10:08:55;;;;;;;98.30;36.42;;;3.20;99.90;;;;;;5038247;28;20556;-78
2024/01/14 10:11:21;;;;;;;89.43;36.13;;;3.20;99.90;;;;;;5035000;28;20037;-79
2024/01/14 10:13:48;;;;;;;90.97;32.25;;;3.20;99.90;;;;;;5031082;28;20102;-79
2024/01/14 10:16:14;;;;;;;98.15;38.17;;;3.20;99.90;;;;;;5038521;28;20052;-79
2024/01/14 10:18:40;;;;;;;84.50;35.22;;;3.20;99.90;;;;;;5030942;28;20492;-79
2024/01/14 10:21:05;;;;;;;87.13;34.03;;;3.20;99.90;;;;;;5070700;28;20100;-79
2024/01/14 10:23:32;;;;;;;89.45;35.03;;;3.20;99.90;;;;;;5072835;28;20116;-78
2024/01/14 10:26:01;;;;;;;97.45;38.63;;;3.30;99.90;;;;;;5072454;28;20012;-78
2024/01/14 10:28:34;;;;;;;103.05;37.92;;;3.30;99.90;;;;;;5065535;28;20033;-79
2024/01/14 10:31:02;;;;;;;105.05;37.45;;;3.20;99.90;;;;;;5068377;28;20471;-79
2024/01/14 10:33:32;;;;;;;95.88;36.28;;;3.20;99.90;;;;;;5072583;28;20087;-78
2024/01/14 10:35:58;;;;;;;98.70;37.95;;;3.30;99.90;;;;;;5039237;28;20052;-78
2024/01/14 10:38:24;;;;;;;110.28;39.60;;;3.20;99.90;;;;;;5067088;28;20490;-78
2024/01/14 10:40:50;;;;;;;98.53;39.00;;;3.30;99.90;;;;;;5044886;28;20017;-79
2024/01/14 10:43:16;;;;;;;89.95;35.40;;;3.30;99.90;;;;;;5066771;28;20032;-79
2024/01/14 10:45:42;;;;;;;100.40;40.30;;;3.30;99.90;;;;;;5063797;28;20498;-79
2024/01/14 10:48:11;;;;;;;112.93;40.30;;;3.30;99.90;;;;;;5073930;28;20024;-79
2024/01/14 10:50:38;;;;;;;102.90;36.65;;;3.30;99.90;;;;;;5073148;28;20028;-79
2024/01/14 10:53:10;;;;;;;98.97;38.17;;;3.30;99.90;;;;;;5073782;28;20025;-79
2024/01/14 10:55:41;;;;;;;103.18;39.45;;;3.30;99.90;;;;;;5056661;28;20025;-80
2024/01/14 10:58:07;;;;;;;113.75;40.15;;;3.30;99.90;;;;;;5043273;28;20034;-80
2024/01/14 11:00:35;;;;;;;105.15;38.67;;;3.20;99.90;;;;;;5051206;28;20052;-80
2024/01/14 11:03:05;;;;;;;95.50;36.47;;;3.30;99.90;;;;;;5041501;28;20029;-80
2024/01/14 11:05:33;;;;;;;89.90;36.13;;;3.30;99.90;;;;;;5043459;28;20025;-79
2024/01/14 11:08:01;;;;;;;111.80;40.63;;;3.30;99.90;;;;;;5072098;28;20029;-80
2024/01/14 11:10:27;;;;;;;107.78;37.55;;;3.30;99.90;;;;;;5071881;28;20363;-78
2024/01/14 11:13:02;;;;;;;99.13;37.65;;;3.30;99.90;;;;;;5060146;28;20028;-80
2024/01/14 11:15:52;;;;;;;109.95;37.33;;;3.30;99.90;;;;;;5060064;28;20059;-80
2024/01/14 11:18:24;;;;;;;98.93;34.97;;;3.30;99.90;;;;;;5042682;28;20036;-80
2024/01/14 11:21:13;;;;;;;92.43;33.33;;;3.30;99.90;;;;;;5040909;28;20029;-80
2024/01/14 11:23:40;;;;;;;109.00;38.22;;;3.40;99.90;;;;;;5026723;28;20041;-80
2024/01/14 11:26:07;;;;;;;95.78;35.90;;;3.30;99.90;;;;;;5051627;28;20442;-80
2024/01/14 11:28:33;;;;;;;95.13;36.13;;;3.40;99.90;;;;;;5050276;28;20167;-80
2024/01/14 11:31:01;;;;;;;102.10;38.17;;;3.30;99.90;;;;;;5067496;28;20023;-80
2024/01/14 11:33:40;;;;;;;102.93;38.83;;;3.40;99.90;;;;;;5063019;28;20039;-80
2024/01/14 11:36:10;;;;;;;100.35;35.42;;;3.40;99.90;;;;;;5070622;28;20067;-80
2024/01/14 11:38:38;;;;;;;93.70;35.35;;;3.40;99.90;;;;;;5061612;28;20036;-80
2024/01/14 11:41:29;;;;;;;92.82;34.78;;;3.40;99.90;;;;;;5051810;28;20040;-80
2024/01/14 11:44:04;;;;;;;91.22;32.33;;;3.40;99.90;;;;;;5051558;28;20569;-80
2024/01/14 11:46:56;;;;;;;93.80;34.13;;;3.40;99.90;;;;;;5054497;28;20032;-79
2024/01/14 11:49:26;;;;;;;80.05;31.17;;;3.40;99.90;;;;;;5034759;28;20059;-80
2024/01/14 11:51:58;;;;;;;78.53;31.83;;;3.40;99.90;;;;;;5045576;28;20020;-80
2024/01/14 11:54:24;;;;;;;76.72;29.27;;;3.40;99.90;;;;;;5034577;28;20021;-81
2024/01/14 11:56:50;;;;;;;71.25;28.48;;;3.40;99.90;;;;;;5033547;28;20037;-81
2024/01/14 11:59:17;;;;;;;70.10;29.90;;;3.40;99.90;;;;;;5045295;28;20510;-80
2024/01/14 12:01:43;;;;;;;62.60;27.83;;;3.40;99.90;;;;;;5062660;28;20030;-80
2024/01/14 12:04:09;;;;;;;67.85;28.63;;;3.40;99.90;;;;;;5056100;28;20033;-81
2024/01/14 12:06:45;;;;;;;72.80;29.95;;;3.40;99.90;;;;;;5053481;28;20478;-81
2024/01/14 12:09:14;;;;;;;55.88;25.30;;;3.50;99.90;;;;;;5056859;28;20052;-81
2024/01/14 12:11:41;;;;;;;62.22;27.17;;;3.50;99.90;;;;;;5032689;28;20025;-80
2024/01/14 12:14:08;;;;;;;65.78;26.75;;;3.50;99.90;;;;;;5062455;28;20040;-80
2024/01/14 12:16:34;;;;;;;66.35;28.05;;;3.50;99.90;;;;;;5067185;28;20055;-80
2024/01/14 12:19:10;;;;;;;58.67;26.85;;;3.50;99.90;;;;;;5057489;28;20021;-81
2024/01/14 12:21:36;;;;;;;65.07;28.10;;;3.50;99.90;;;;;;5066916;28;20017;-81
2024/01/14 12:24:02;;;;;;;74.38;30.30;;;3.50;99.90;;;;;;5047815;28;20022;-81
2024/01/14 12:26:28;;;;;;;64.18;29.38;;;3.50;99.90;;;;;;5055970;28;20032;-80
2024/01/14 12:28:54;;;;;;;65.78;28.55;;;3.50;99.90;;;;;;5042283;28;20018;-81
2024/01/14 12:31:25;;;;;;;63.55;29.27;;;3.50;99.90;;;;;;5045581;28;20016;-80